sensor_id;sensor_type;location;lat;lon;timestamp;P1;durP1;ratioP1;P2;durP2;ratioP2
43710;SDS011;29309;42.682;23.372;2023-04-25T00:01:17;6.68;;;2.55;;
43710;SDS011;29309;42.682;23.372;2023-04-25T00:03:43;4.57;;;2.70;;
43710;SDS011;29309;42.682;23.372;2023-04-25T00:06:09;2.60;;;2.40;;
43710;SDS011;29309;42.682;23.372;2023-04-25T00:08:34;4.53;;;2.70;;
43710;SDS011;29309;42.682;23.372;2023-04-25T00:11:00;3.17;;;2.60;;
43710;SDS011;29309;42.682;23.372;2023-04-25T00:13:26;3.47;;;2.60;;
43710;SDS011;29309;42.682;23.372;2023-04-25T00:15:52;5.07;;;3.30;;
43710;SDS011;29309;42.682;23.372;2023-04-25T00:18:21;5.28;;;2.95;;
43710;SDS011;29309;42.682;23.372;2023-04-25T00:20:47;5.75;;;3.67;;
43710;SDS011;29309;42.682;23.372;2023-04-25T00:23:16;5.10;;;3.38;;
43710;SDS011;29309;42.682;23.372;2023-04-25T00:25:45;4.57;;;3.30;;
43710;SDS011;29309;42.682;23.372;2023-04-25T00:28:11;4.93;;;2.83;;
43710;SDS011;29309;42.682;23.372;2023-04-25T00:30:38;4.60;;;3.00;;
43710;SDS011;29309;42.682;23.372;2023-04-25T00:33:04;5.00;;;3.60;;
43710;SDS011;29309;42.682;23.372;2023-04-25T00:35:29;4.20;;;3.00;;
43710;SDS011;29309;42.682;23.372;2023-04-25T00:37:55;4.53;;;3.75;;
43710;SDS011;29309;42.682;23.372;2023-04-25T00:40:20;4.60;;;3.75;;
43710;SDS011;29309;42.682;23.372;2023-04-25T00:42:46;4.25;;;3.38;;
43710;SDS011;29309;42.682;23.372;2023-04-25T00:45:13;5.63;;;3.47;;
43710;SDS011;29309;42.682;23.372;2023-04-25T00:47:40;4.10;;;2.90;;
43710;SDS011;29309;42.682;23.372;2023-04-25T00:50:06;3.67;;;3.03;;
43710;SDS011;29309;42.682;23.372;2023-04-25T00:52:32;3.55;;;2.40;;
43710;SDS011;29309;42.682;23.372;2023-04-25T00:54:58;3.78;;;2.83;;
43710;SDS011;29309;42.682;23.372;2023-04-25T00:57:24;3.55;;;2.60;;
43710;SDS011;29309;42.682;23.372;2023-04-25T00:59:51;4.13;;;3.00;;
43710;SDS011;29309;42.682;23.372;2023-04-25T01:02:18;2.75;;;2.13;;
43710;SDS011;29309;42.682;23.372;2023-04-25T01:04:45;3.33;;;2.17;;
43710;SDS011;29309;42.682;23.372;2023-04-25T01:07:12;3.20;;;2.30;;
43710;SDS011;29309;42.682;23.372;2023-04-25T01:09:38;4.63;;;2.45;;
43710;SDS011;29309;42.682;23.372;2023-04-25T01:12:04;3.95;;;2.28;;
43710;SDS011;29309;42.682;23.372;2023-04-25T01:14:29;5.65;;;2.63;;
43710;SDS011;29309;42.682;23.372;2023-04-25T01:16:55;3.97;;;2.90;;
43710;SDS011;29309;42.682;23.372;2023-04-25T01:19:21;4.32;;;2.25;;
43710;SDS011;29309;42.682;23.372;2023-04-25T01:21:46;3.83;;;2.60;;
43710;SDS011;29309;42.682;23.372;2023-04-25T01:24:12;5.43;;;2.85;;
43710;SDS011;29309;42.682;23.372;2023-04-25T01:26:38;5.13;;;3.03;;
43710;SDS011;29309;42.682;23.372;2023-04-25T01:29:09;6.30;;;3.13;;
43710;SDS011;29309;42.682;23.372;2023-04-25T01:31:35;3.75;;;3.03;;
43710;SDS011;29309;42.682;23.372;2023-04-25T01:34:01;6.28;;;3.05;;
43710;SDS011;29309;42.682;23.372;2023-04-25T01:36:27;5.80;;;3.10;;
43710;SDS011;29309;42.682;23.372;2023-04-25T01:38:53;5.65;;;2.90;;
43710;SDS011;29309;42.682;23.372;2023-04-25T01:41:19;4.93;;;3.40;;
43710;SDS011;29309;42.682;23.372;2023-04-25T01:43:45;4.50;;;2.90;;
43710;SDS011;29309;42.682;23.372;2023-04-25T01:46:10;5.07;;;3.55;;
43710;SDS011;29309;42.682;23.372;2023-04-25T01:48:36;5.32;;;3.45;;
43710;SDS011;29309;42.682;23.372;2023-04-25T01:51:02;3.30;;;2.33;;
43710;SDS011;29309;42.682;23.372;2023-04-25T01:53:28;3.60;;;3.15;;
43710;SDS011;29309;42.682;23.372;2023-04-25T01:55:53;6.68;;;3.42;;
43710;SDS011;29309;42.682;23.372;2023-04-25T01:58:19;5.68;;;2.75;;
43710;SDS011;29309;42.682;23.372;2023-04-25T02:00:44;3.65;;;3.10;;
43710;SDS011;29309;42.682;23.372;2023-04-25T02:03:09;3.47;;;2.58;;
43710;SDS011;29309;42.682;23.372;2023-04-25T02:05:38;5.13;;;3.15;;
43710;SDS011;29309;42.682;23.372;2023-04-25T02:08:05;4.70;;;3.35;;
43710;SDS011;29309;42.682;23.372;2023-04-25T02:10:32;5.40;;;3.10;;
43710;SDS011;29309;42.682;23.372;2023-04-25T02:12:58;4.60;;;3.20;;
43710;SDS011;29309;42.682;23.372;2023-04-25T02:15:24;3.72;;;2.70;;
43710;SDS011;29309;42.682;23.372;2023-04-25T02:17:49;4.13;;;3.47;;
43710;SDS011;29309;42.682;23.372;2023-04-25T02:20:17;3.65;;;2.80;;
43710;SDS011;29309;42.682;23.372;2023-04-25T02:22:45;4.45;;;3.00;;
43710;SDS011;29309;42.682;23.372;2023-04-25T02:25:10;3.33;;;2.70;;
43710;SDS011;29309;42.682;23.372;2023-04-25T02:27:36;4.28;;;2.67;;
43710;SDS011;29309;42.682;23.372;2023-04-25T02:30:02;4.13;;;2.80;;
43710;SDS011;29309;42.682;23.372;2023-04-25T02:32:28;4.70;;;2.88;;
43710;SDS011;29309;42.682;23.372;2023-04-25T02:34:53;3.45;;;2.60;;
43710;SDS011;29309;42.682;23.372;2023-04-25T02:37:19;5.88;;;3.00;;
43710;SDS011;29309;42.682;23.372;2023-04-25T02:39:44;3.28;;;2.75;;
43710;SDS011;29309;42.682;23.372;2023-04-25T02:42:10;5.22;;;3.22;;
43710;SDS011;29309;42.682;23.372;2023-04-25T02:44:35;5.03;;;3.40;;
43710;SDS011;29309;42.682;23.372;2023-04-25T02:47:01;3.40;;;2.83;;
43710;SDS011;29309;42.682;23.372;2023-04-25T02:49:26;4.45;;;3.05;;
43710;SDS011;29309;42.682;23.372;2023-04-25T02:51:52;4.22;;;3.45;;
43710;SDS011;29309;42.682;23.372;2023-04-25T02:54:17;5.72;;;2.83;;
43710;SDS011;29309;42.682;23.372;2023-04-25T02:56:42;3.63;;;3.13;;
43710;SDS011;29309;42.682;23.372;2023-04-25T02:59:08;9.02;;;3.95;;
43710;SDS011;29309;42.682;23.372;2023-04-25T03:01:33;3.88;;;2.70;;
43710;SDS011;29309;42.682;23.372;2023-04-25T03:03:59;5.63;;;3.75;;
43710;SDS011;29309;42.682;23.372;2023-04-25T03:06:24;5.68;;;3.60;;
43710;SDS011;29309;42.682;23.372;2023-04-25T03:08:50;5.43;;;3.25;;
43710;SDS011;29309;42.682;23.372;2023-04-25T03:11:15;5.28;;;3.42;;
43710;SDS011;29309;42.682;23.372;2023-04-25T03:13:40;4.80;;;3.58;;
43710;SDS011;29309;42.682;23.372;2023-04-25T03:16:06;7.05;;;3.70;;
43710;SDS011;29309;42.682;23.372;2023-04-25T03:18:31;4.75;;;3.65;;
43710;SDS011;29309;42.682;23.372;2023-04-25T03:20:57;10.57;;;3.90;;
43710;SDS011;29309;42.682;23.372;2023-04-25T03:23:22;4.70;;;3.55;;
43710;SDS011;29309;42.682;23.372;2023-04-25T03:25:48;5.20;;;3.97;;
43710;SDS011;29309;42.682;23.372;2023-04-25T03:28:13;6.32;;;4.88;;
43710;SDS011;29309;42.682;23.372;2023-04-25T03:30:39;6.30;;;4.40;;
43710;SDS011;29309;42.682;23.372;2023-04-25T03:33:05;6.10;;;4.53;;
43710;SDS011;29309;42.682;23.372;2023-04-25T03:35:30;11.55;;;7.45;;
43710;SDS011;29309;42.682;23.372;2023-04-25T03:37:56;9.90;;;5.03;;
43710;SDS011;29309;42.682;23.372;2023-04-25T03:40:21;6.22;;;4.40;;
43710;SDS011;29309;42.682;23.372;2023-04-25T03:42:47;8.00;;;5.10;;
43710;SDS011;29309;42.682;23.372;2023-04-25T03:45:12;7.97;;;5.47;;
43710;SDS011;29309;42.682;23.372;2023-04-25T03:47:37;6.43;;;5.05;;
43710;SDS011;29309;42.682;23.372;2023-04-25T03:50:03;7.63;;;5.30;;
43710;SDS011;29309;42.682;23.372;2023-04-25T03:52:28;6.60;;;5.00;;
43710;SDS011;29309;42.682;23.372;2023-04-25T03:54:54;7.55;;;5.28;;
43710;SDS011;29309;42.682;23.372;2023-04-25T03:57:19;8.52;;;5.90;;
43710;SDS011;29309;42.682;23.372;2023-04-25T03:59:45;8.55;;;5.43;;
43710;SDS011;29309;42.682;23.372;2023-04-25T04:02:10;8.52;;;5.38;;
43710;SDS011;29309;42.682;23.372;2023-04-25T04:04:36;7.43;;;5.25;;
43710;SDS011;29309;42.682;23.372;2023-04-25T04:07:02;7.68;;;5.47;;
43710;SDS011;29309;42.682;23.372;2023-04-25T04:09:27;7.03;;;4.70;;
43710;SDS011;29309;42.682;23.372;2023-04-25T04:11:53;5.40;;;4.25;;
43710;SDS011;29309;42.682;23.372;2023-04-25T04:14:18;8.10;;;5.65;;
43710;SDS011;29309;42.682;23.372;2023-04-25T04:16:44;6.50;;;5.00;;
43710;SDS011;29309;42.682;23.372;2023-04-25T04:19:09;7.50;;;5.57;;
43710;SDS011;29309;42.682;23.372;2023-04-25T04:21:35;7.43;;;5.47;;
43710;SDS011;29309;42.682;23.372;2023-04-25T04:24:01;7.40;;;5.57;;
43710;SDS011;29309;42.682;23.372;2023-04-25T04:26:26;7.50;;;5.72;;
43710;SDS011;29309;42.682;23.372;2023-04-25T04:28:52;8.48;;;6.30;;
43710;SDS011;29309;42.682;23.372;2023-04-25T04:31:19;8.98;;;6.30;;
43710;SDS011;29309;42.682;23.372;2023-04-25T04:33:45;7.85;;;6.18;;
43710;SDS011;29309;42.682;23.372;2023-04-25T04:36:11;11.07;;;8.10;;
43710;SDS011;29309;42.682;23.372;2023-04-25T04:38:37;10.63;;;7.50;;
43710;SDS011;29309;42.682;23.372;2023-04-25T04:41:02;9.55;;;8.25;;
43710;SDS011;29309;42.682;23.372;2023-04-25T04:43:28;10.60;;;7.97;;
43710;SDS011;29309;42.682;23.372;2023-04-25T04:45:54;10.05;;;8.15;;
43710;SDS011;29309;42.682;23.372;2023-04-25T04:48:21;9.25;;;6.72;;
43710;SDS011;29309;42.682;23.372;2023-04-25T04:50:47;8.45;;;6.70;;
43710;SDS011;29309;42.682;23.372;2023-04-25T04:53:12;10.10;;;7.32;;
43710;SDS011;29309;42.682;23.372;2023-04-25T04:55:38;9.90;;;7.55;;
43710;SDS011;29309;42.682;23.372;2023-04-25T04:58:03;9.70;;;7.13;;
43710;SDS011;29309;42.682;23.372;2023-04-25T05:00:29;8.88;;;7.38;;
43710;SDS011;29309;42.682;23.372;2023-04-25T05:02:55;11.10;;;7.47;;
43710;SDS011;29309;42.682;23.372;2023-04-25T05:05:21;11.93;;;8.43;;
43710;SDS011;29309;42.682;23.372;2023-04-25T05:07:47;13.10;;;8.70;;
43710;SDS011;29309;42.682;23.372;2023-04-25T05:10:12;12.57;;;7.80;;
43710;SDS011;29309;42.682;23.372;2023-04-25T05:12:38;10.95;;;8.07;;
43710;SDS011;29309;42.682;23.372;2023-04-25T05:15:03;12.82;;;8.55;;
43710;SDS011;29309;42.682;23.372;2023-04-25T05:17:29;12.98;;;8.60;;
43710;SDS011;29309;42.682;23.372;2023-04-25T05:19:54;13.75;;;8.60;;
43710;SDS011;29309;42.682;23.372;2023-04-25T05:22:20;15.65;;;9.48;;
43710;SDS011;29309;42.682;23.372;2023-04-25T05:24:45;13.45;;;9.43;;
43710;SDS011;29309;42.682;23.372;2023-04-25T05:27:11;15.48;;;9.15;;
43710;SDS011;29309;42.682;23.372;2023-04-25T05:29:36;13.05;;;8.30;;
43710;SDS011;29309;42.682;23.372;2023-04-25T05:32:02;12.73;;;8.27;;
43710;SDS011;29309;42.682;23.372;2023-04-25T05:34:27;12.98;;;8.00;;
43710;SDS011;29309;42.682;23.372;2023-04-25T05:36:53;13.60;;;7.78;;
43710;SDS011;29309;42.682;23.372;2023-04-25T05:39:18;11.10;;;7.35;;
43710;SDS011;29309;42.682;23.372;2023-04-25T05:41:44;9.60;;;7.22;;
43710;SDS011;29309;42.682;23.372;2023-04-25T05:44:09;13.07;;;7.60;;
43710;SDS011;29309;42.682;23.372;2023-04-25T05:46:35;10.60;;;6.50;;
43710;SDS011;29309;42.682;23.372;2023-04-25T05:49:00;8.27;;;5.10;;
43710;SDS011;29309;42.682;23.372;2023-04-25T05:51:26;23.55;;;7.13;;
43710;SDS011;29309;42.682;23.372;2023-04-25T05:53:52;10.75;;;6.68;;
43710;SDS011;29309;42.682;23.372;2023-04-25T05:56:18;21.35;;;10.50;;
43710;SDS011;29309;42.682;23.372;2023-04-25T05:58:43;12.88;;;7.97;;
43710;SDS011;29309;42.682;23.372;2023-04-25T06:01:09;13.02;;;5.40;;
43710;SDS011;29309;42.682;23.372;2023-04-25T06:03:34;11.55;;;5.82;;
43710;SDS011;29309;42.682;23.372;2023-04-25T06:06:00;12.77;;;6.30;;
43710;SDS011;29309;42.682;23.372;2023-04-25T06:08:26;8.98;;;5.97;;
43710;SDS011;29309;42.682;23.372;2023-04-25T06:10:51;9.63;;;6.85;;
43710;SDS011;29309;42.682;23.372;2023-04-25T06:13:16;9.60;;;7.20;;
43710;SDS011;29309;42.682;23.372;2023-04-25T06:15:42;9.23;;;5.32;;
43710;SDS011;29309;42.682;23.372;2023-04-25T06:18:08;8.32;;;5.88;;
43710;SDS011;29309;42.682;23.372;2023-04-25T06:20:33;7.00;;;4.60;;
43710;SDS011;29309;42.682;23.372;2023-04-25T06:23:00;5.65;;;3.42;;
43710;SDS011;29309;42.682;23.372;2023-04-25T06:25:25;5.78;;;3.63;;
43710;SDS011;29309;42.682;23.372;2023-04-25T06:27:51;13.15;;;6.05;;
43710;SDS011;29309;42.682;23.372;2023-04-25T06:30:16;8.55;;;4.72;;
43710;SDS011;29309;42.682;23.372;2023-04-25T06:32:47;8.85;;;4.63;;
43710;SDS011;29309;42.682;23.372;2023-04-25T06:35:12;7.88;;;4.22;;
43710;SDS011;29309;42.682;23.372;2023-04-25T06:37:38;6.05;;;3.33;;
43710;SDS011;29309;42.682;23.372;2023-04-25T06:40:03;7.80;;;3.50;;
43710;SDS011;29309;42.682;23.372;2023-04-25T06:42:29;7.95;;;3.83;;
43710;SDS011;29309;42.682;23.372;2023-04-25T06:44:55;5.97;;;3.95;;
43710;SDS011;29309;42.682;23.372;2023-04-25T06:47:20;8.32;;;4.90;;
43710;SDS011;29309;42.682;23.372;2023-04-25T06:49:46;7.35;;;4.13;;
43710;SDS011;29309;42.682;23.372;2023-04-25T06:52:11;7.65;;;3.88;;
43710;SDS011;29309;42.682;23.372;2023-04-25T07:06:23;8.52;;;4.80;;
43710;SDS011;29309;42.682;23.372;2023-04-25T07:08:50;6.38;;;4.15;;
43710;SDS011;29309;42.682;23.372;2023-04-25T07:11:16;7.50;;;4.15;;
43710;SDS011;29309;42.682;23.372;2023-04-25T07:13:41;7.97;;;4.07;;
43710;SDS011;29309;42.682;23.372;2023-04-25T07:16:06;10.32;;;4.53;;
43710;SDS011;29309;42.682;23.372;2023-04-25T07:18:32;5.43;;;4.10;;
43710;SDS011;29309;42.682;23.372;2023-04-25T07:20:57;6.38;;;4.55;;
43710;SDS011;29309;42.682;23.372;2023-04-25T07:23:23;6.18;;;4.72;;
43710;SDS011;29309;42.682;23.372;2023-04-25T07:25:48;6.93;;;4.65;;
43710;SDS011;29309;42.682;23.372;2023-04-25T07:28:13;7.57;;;5.40;;
43710;SDS011;29309;42.682;23.372;2023-04-25T07:30:39;6.50;;;5.10;;
43710;SDS011;29309;42.682;23.372;2023-04-25T07:33:04;11.95;;;4.70;;
43710;SDS011;29309;42.682;23.372;2023-04-25T07:35:30;9.90;;;5.53;;
43710;SDS011;29309;42.682;23.372;2023-04-25T07:37:55;7.53;;;5.10;;
43710;SDS011;29309;42.682;23.372;2023-04-25T07:40:21;6.45;;;5.00;;
43710;SDS011;29309;42.682;23.372;2023-04-25T07:42:46;5.75;;;4.00;;
43710;SDS011;29309;42.682;23.372;2023-04-25T07:45:12;13.30;;;5.50;;
43710;SDS011;29309;42.682;23.372;2023-04-25T07:47:37;7.78;;;5.75;;
43710;SDS011;29309;42.682;23.372;2023-04-25T07:50:03;6.65;;;3.72;;
43710;SDS011;29309;42.682;23.372;2023-04-25T07:52:29;16.08;;;4.80;;
43710;SDS011;29309;42.682;23.372;2023-04-25T07:54:54;9.40;;;5.15;;
43710;SDS011;29309;42.682;23.372;2023-04-25T07:57:20;9.88;;;4.78;;
43710;SDS011;29309;42.682;23.372;2023-04-25T07:59:45;10.00;;;3.70;;
43710;SDS011;29309;42.682;23.372;2023-04-25T08:02:11;5.90;;;3.50;;
43710;SDS011;29309;42.682;23.372;2023-04-25T08:04:36;3.97;;;3.22;;
43710;SDS011;29309;42.682;23.372;2023-04-25T08:07:02;5.82;;;4.03;;
43710;SDS011;29309;42.682;23.372;2023-04-25T08:09:27;8.45;;;4.03;;
43710;SDS011;29309;42.682;23.372;2023-04-25T08:11:54;7.78;;;3.42;;
43710;SDS011;29309;42.682;23.372;2023-04-25T08:14:19;8.55;;;4.20;;
43710;SDS011;29309;42.682;23.372;2023-04-25T08:16:45;8.40;;;3.92;;
43710;SDS011;29309;42.682;23.372;2023-04-25T08:19:11;7.15;;;3.97;;
43710;SDS011;29309;42.682;23.372;2023-04-25T08:21:37;12.48;;;4.05;;
43710;SDS011;29309;42.682;23.372;2023-04-25T08:24:02;9.70;;;4.32;;
43710;SDS011;29309;42.682;23.372;2023-04-25T08:26:29;7.13;;;3.90;;
43710;SDS011;29309;42.682;23.372;2023-04-25T08:28:54;7.13;;;4.35;;
43710;SDS011;29309;42.682;23.372;2023-04-25T08:31:20;7.93;;;5.55;;
43710;SDS011;29309;42.682;23.372;2023-04-25T08:33:45;10.05;;;6.72;;
43710;SDS011;29309;42.682;23.372;2023-04-25T08:36:11;10.63;;;6.65;;
43710;SDS011;29309;42.682;23.372;2023-04-25T08:38:36;9.65;;;4.93;;
43710;SDS011;29309;42.682;23.372;2023-04-25T08:41:02;5.68;;;3.88;;
43710;SDS011;29309;42.682;23.372;2023-04-25T08:43:28;10.45;;;4.03;;
43710;SDS011;29309;42.682;23.372;2023-04-25T08:45:58;6.88;;;3.17;;
43710;SDS011;29309;42.682;23.372;2023-04-25T08:48:25;3.58;;;2.10;;
43710;SDS011;29309;42.682;23.372;2023-04-25T08:50:54;5.50;;;2.85;;
43710;SDS011;29309;42.682;23.372;2023-04-25T08:53:22;9.15;;;5.18;;
43710;SDS011;29309;42.682;23.372;2023-04-25T08:55:52;7.25;;;5.97;;
43710;SDS011;29309;42.682;23.372;2023-04-25T08:58:19;9.27;;;7.28;;
43710;SDS011;29309;42.682;23.372;2023-04-25T09:00:46;12.80;;;8.05;;
43710;SDS011;29309;42.682;23.372;2023-04-25T09:03:12;7.60;;;6.80;;
43710;SDS011;29309;42.682;23.372;2023-04-25T09:05:38;9.75;;;7.72;;
43710;SDS011;29309;42.682;23.372;2023-04-25T09:08:05;12.85;;;7.00;;
43710;SDS011;29309;42.682;23.372;2023-04-25T09:10:31;8.40;;;6.13;;
43710;SDS011;29309;42.682;23.372;2023-04-25T09:13:07;6.82;;;5.82;;
43710;SDS011;29309;42.682;23.372;2023-04-25T09:15:54;7.82;;;5.15;;
43710;SDS011;29309;42.682;23.372;2023-04-25T09:18:28;5.15;;;4.28;;
43710;SDS011;29309;42.682;23.372;2023-04-25T09:20:55;7.18;;;3.90;;
43710;SDS011;29309;42.682;23.372;2023-04-25T09:23:23;9.07;;;4.32;;
43710;SDS011;29309;42.682;23.372;2023-04-25T09:25:49;7.07;;;5.25;;
43710;SDS011;29309;42.682;23.372;2023-04-25T09:28:18;7.22;;;4.20;;
43710;SDS011;29309;42.682;23.372;2023-04-25T09:30:49;7.55;;;5.05;;
43710;SDS011;29309;42.682;23.372;2023-04-25T09:33:14;8.05;;;4.95;;
43710;SDS011;29309;42.682;23.372;2023-04-25T09:35:43;7.53;;;5.35;;
43710;SDS011;29309;42.682;23.372;2023-04-25T09:38:13;6.82;;;5.97;;
43710;SDS011;29309;42.682;23.372;2023-04-25T09:40:45;10.32;;;5.30;;
43710;SDS011;29309;42.682;23.372;2023-04-25T09:43:18;7.55;;;5.53;;
43710;SDS011;29309;42.682;23.372;2023-04-25T09:45:48;11.82;;;7.03;;
43710;SDS011;29309;42.682;23.372;2023-04-25T09:48:18;8.40;;;6.32;;
43710;SDS011;29309;42.682;23.372;2023-04-25T09:50:45;6.03;;;4.15;;
43710;SDS011;29309;42.682;23.372;2023-04-25T09:53:11;6.78;;;3.97;;
43710;SDS011;29309;42.682;23.372;2023-04-25T09:55:37;7.53;;;3.50;;
43710;SDS011;29309;42.682;23.372;2023-04-25T09:58:06;8.45;;;3.67;;
43710;SDS011;29309;42.682;23.372;2023-04-25T10:00:34;5.97;;;3.47;;
43710;SDS011;29309;42.682;23.372;2023-04-25T10:03:03;6.30;;;4.05;;
43710;SDS011;29309;42.682;23.372;2023-04-25T10:05:32;5.13;;;3.65;;
43710;SDS011;29309;42.682;23.372;2023-04-25T10:08:02;5.85;;;3.67;;
43710;SDS011;29309;42.682;23.372;2023-04-25T10:10:29;5.93;;;3.42;;
43710;SDS011;29309;42.682;23.372;2023-04-25T10:12:57;6.53;;;3.85;;
43710;SDS011;29309;42.682;23.372;2023-04-25T10:15:24;4.13;;;2.90;;
43710;SDS011;29309;42.682;23.372;2023-04-25T10:17:50;5.80;;;3.20;;
43710;SDS011;29309;42.682;23.372;2023-04-25T10:20:16;3.95;;;2.92;;
43710;SDS011;29309;42.682;23.372;2023-04-25T10:22:42;6.35;;;2.85;;
43710;SDS011;29309;42.682;23.372;2023-04-25T10:25:10;9.82;;;3.33;;
43710;SDS011;29309;42.682;23.372;2023-04-25T10:27:36;13.55;;;4.32;;
43710;SDS011;29309;42.682;23.372;2023-04-25T10:30:10;12.77;;;4.03;;
43710;SDS011;29309;42.682;23.372;2023-04-25T10:32:43;11.73;;;5.43;;
43710;SDS011;29309;42.682;23.372;2023-04-25T10:35:14;4.90;;;3.33;;
43710;SDS011;29309;42.682;23.372;2023-04-25T10:38:23;4.43;;;3.45;;
43710;SDS011;29309;42.682;23.372;2023-04-25T10:40:37;7.57;;;2.88;;
43710;SDS011;29309;42.682;23.372;2023-04-25T10:45:56;5.70;;;3.70;;
43710;SDS011;29309;42.682;23.372;2023-04-25T10:48:25;3.22;;;2.15;;
43710;SDS011;29309;42.682;23.372;2023-04-25T10:51:10;1.88;;;1.42;;
43710;SDS011;29309;42.682;23.372;2023-04-25T10:53:37;3.15;;;1.02;;
43710;SDS011;29309;42.682;23.372;2023-04-25T10:56:16;5.00;;;1.10;;
43710;SDS011;29309;42.682;23.372;2023-04-25T10:58:43;2.90;;;1.08;;
43710;SDS011;29309;42.682;23.372;2023-04-25T11:01:09;2.35;;;1.15;;
43710;SDS011;29309;42.682;23.372;2023-04-25T11:03:41;4.18;;;1.20;;
43710;SDS011;29309;42.682;23.372;2023-04-25T11:06:27;1.77;;;0.90;;
43710;SDS011;29309;42.682;23.372;2023-04-25T11:09:02;12.70;;;1.73;;
43710;SDS011;29309;42.682;23.372;2023-04-25T11:11:28;3.72;;;1.20;;
43710;SDS011;29309;42.682;23.372;2023-04-25T11:13:55;2.30;;;1.35;;
43710;SDS011;29309;42.682;23.372;2023-04-25T11:16:20;1.92;;;1.08;;
43710;SDS011;29309;42.682;23.372;2023-04-25T11:18:49;4.32;;;1.65;;
43710;SDS011;29309;42.682;23.372;2023-04-25T11:21:15;5.32;;;1.25;;
43710;SDS011;29309;42.682;23.372;2023-04-25T11:23:41;2.88;;;1.15;;
43710;SDS011;29309;42.682;23.372;2023-04-25T11:26:11;3.55;;;1.00;;
43710;SDS011;29309;42.682;23.372;2023-04-25T11:28:38;3.03;;;1.00;;
43710;SDS011;29309;42.682;23.372;2023-04-25T11:31:06;11.70;;;1.92;;
43710;SDS011;29309;42.682;23.372;2023-04-25T11:33:34;4.75;;;0.98;;
43710;SDS011;29309;42.682;23.372;2023-04-25T11:36:01;1.20;;;0.70;;
43710;SDS011;29309;42.682;23.372;2023-04-25T11:38:26;4.35;;;1.27;;
43710;SDS011;29309;42.682;23.372;2023-04-25T11:40:52;3.42;;;1.73;;
43710;SDS011;29309;42.682;23.372;2023-04-25T11:43:21;10.32;;;4.35;;
43710;SDS011;29309;42.682;23.372;2023-04-25T11:45:50;6.75;;;1.90;;
43710;SDS011;29309;42.682;23.372;2023-04-25T11:48:17;2.60;;;1.60;;
43710;SDS011;29309;42.682;23.372;2023-04-25T11:50:45;5.32;;;1.77;;
43710;SDS011;29309;42.682;23.372;2023-04-25T11:53:10;12.23;;;1.85;;
43710;SDS011;29309;42.682;23.372;2023-04-25T11:55:36;3.15;;;0.85;;
43710;SDS011;29309;42.682;23.372;2023-04-25T11:58:02;1.48;;;0.50;;
43710;SDS011;29309;42.682;23.372;2023-04-25T12:00:29;0.98;;;0.63;;
43710;SDS011;29309;42.682;23.372;2023-04-25T12:02:55;2.13;;;0.70;;
43710;SDS011;29309;42.682;23.372;2023-04-25T12:05:31;2.45;;;1.08;;
43710;SDS011;29309;42.682;23.372;2023-04-25T12:07:58;1.48;;;0.60;;
43710;SDS011;29309;42.682;23.372;2023-04-25T12:10:36;1.52;;;0.60;;
43710;SDS011;29309;42.682;23.372;2023-04-25T12:13:17;1.25;;;0.70;;
43710;SDS011;29309;42.682;23.372;2023-04-25T12:15:47;2.03;;;0.63;;
43710;SDS011;29309;42.682;23.372;2023-04-25T12:18:12;1.65;;;0.40;;
43710;SDS011;29309;42.682;23.372;2023-04-25T12:20:38;1.30;;;0.70;;
43710;SDS011;29309;42.682;23.372;2023-04-25T12:23:07;0.65;;;0.40;;
43710;SDS011;29309;42.682;23.372;2023-04-25T12:25:40;2.42;;;0.60;;
43710;SDS011;29309;42.682;23.372;2023-04-25T12:28:23;1.92;;;0.75;;
43710;SDS011;29309;42.682;23.372;2023-04-25T12:35:54;0.80;;;0.57;;
43710;SDS011;29309;42.682;23.372;2023-04-25T12:38:25;0.65;;;0.60;;
43710;SDS011;29309;42.682;23.372;2023-04-25T12:40:52;2.47;;;0.70;;
43710;SDS011;29309;42.682;23.372;2023-04-25T12:43:18;2.33;;;0.85;;
43710;SDS011;29309;42.682;23.372;2023-04-25T12:45:44;4.57;;;1.45;;
43710;SDS011;29309;42.682;23.372;2023-04-25T12:48:12;6.40;;;1.65;;
43710;SDS011;29309;42.682;23.372;2023-04-25T12:50:37;4.55;;;1.05;;
43710;SDS011;29309;42.682;23.372;2023-04-25T12:53:03;2.13;;;0.80;;
43710;SDS011;29309;42.682;23.372;2023-04-25T12:55:29;2.00;;;0.80;;
43710;SDS011;29309;42.682;23.372;2023-04-25T12:57:54;4.00;;;1.10;;
43710;SDS011;29309;42.682;23.372;2023-04-25T13:00:20;1.80;;;0.88;;
43710;SDS011;29309;42.682;23.372;2023-04-25T13:02:49;5.03;;;1.35;;
43710;SDS011;29309;42.682;23.372;2023-04-25T13:05:15;4.38;;;1.63;;
43710;SDS011;29309;42.682;23.372;2023-04-25T13:07:42;6.97;;;1.40;;
43710;SDS011;29309;42.682;23.372;2023-04-25T13:10:07;3.63;;;1.15;;
43710;SDS011;29309;42.682;23.372;2023-04-25T13:12:33;2.17;;;1.10;;
43710;SDS011;29309;42.682;23.372;2023-04-25T13:14:59;6.25;;;1.20;;
43710;SDS011;29309;42.682;23.372;2023-04-25T13:17:24;4.18;;;2.47;;
43710;SDS011;29309;42.682;23.372;2023-04-25T13:19:50;4.88;;;1.13;;
43710;SDS011;29309;42.682;23.372;2023-04-25T13:22:15;3.15;;;1.23;;
43710;SDS011;29309;42.682;23.372;2023-04-25T13:24:42;2.20;;;1.15;;
43710;SDS011;29309;42.682;23.372;2023-04-25T13:27:08;4.13;;;1.10;;
43710;SDS011;29309;42.682;23.372;2023-04-25T13:29:33;3.22;;;1.27;;
43710;SDS011;29309;42.682;23.372;2023-04-25T13:32:00;2.60;;;1.30;;
43710;SDS011;29309;42.682;23.372;2023-04-25T13:34:28;4.25;;;1.77;;
43710;SDS011;29309;42.682;23.372;2023-04-25T13:36:54;3.28;;;1.00;;
43710;SDS011;29309;42.682;23.372;2023-04-25T13:39:19;3.58;;;1.27;;
43710;SDS011;29309;42.682;23.372;2023-04-25T13:41:45;4.32;;;1.40;;
43710;SDS011;29309;42.682;23.372;2023-04-25T13:44:10;2.58;;;1.27;;
43710;SDS011;29309;42.682;23.372;2023-04-25T13:46:36;8.98;;;3.95;;
43710;SDS011;29309;42.682;23.372;2023-04-25T13:49:02;7.55;;;2.03;;
43710;SDS011;29309;42.682;23.372;2023-04-25T13:51:28;5.47;;;1.50;;
43710;SDS011;29309;42.682;23.372;2023-04-25T13:53:56;5.75;;;2.55;;
43710;SDS011;29309;42.682;23.372;2023-04-25T13:56:22;2.70;;;1.60;;
43710;SDS011;29309;42.682;23.372;2023-04-25T13:58:49;6.47;;;4.43;;
43710;SDS011;29309;42.682;23.372;2023-04-25T14:01:16;2.95;;;2.30;;
43710;SDS011;29309;42.682;23.372;2023-04-25T14:03:42;5.68;;;2.50;;
43710;SDS011;29309;42.682;23.372;2023-04-25T14:06:08;8.98;;;2.88;;
43710;SDS011;29309;42.682;23.372;2023-04-25T14:08:34;5.55;;;3.30;;
43710;SDS011;29309;42.682;23.372;2023-04-25T14:11:00;11.40;;;6.85;;
43710;SDS011;29309;42.682;23.372;2023-04-25T14:13:26;7.60;;;2.97;;
43710;SDS011;29309;42.682;23.372;2023-04-25T14:15:51;5.60;;;3.30;;
43710;SDS011;29309;42.682;23.372;2023-04-25T14:18:17;5.30;;;2.63;;
43710;SDS011;29309;42.682;23.372;2023-04-25T14:20:43;5.25;;;3.08;;
43710;SDS011;29309;42.682;23.372;2023-04-25T14:23:09;3.67;;;1.92;;
43710;SDS011;29309;42.682;23.372;2023-04-25T14:25:35;9.70;;;6.50;;
43710;SDS011;29309;42.682;23.372;2023-04-25T14:28:01;10.35;;;6.60;;
43710;SDS011;29309;42.682;23.372;2023-04-25T14:30:26;5.57;;;2.53;;
43710;SDS011;29309;42.682;23.372;2023-04-25T14:32:52;6.35;;;2.05;;
43710;SDS011;29309;42.682;23.372;2023-04-25T14:35:18;10.10;;;2.65;;
43710;SDS011;29309;42.682;23.372;2023-04-25T14:37:43;3.55;;;2.30;;
43710;SDS011;29309;42.682;23.372;2023-04-25T14:40:09;2.70;;;1.50;;
43710;SDS011;29309;42.682;23.372;2023-04-25T14:42:36;2.15;;;1.23;;
43710;SDS011;29309;42.682;23.372;2023-04-25T14:45:02;2.28;;;1.63;;
43710;SDS011;29309;42.682;23.372;2023-04-25T14:47:32;8.00;;;1.58;;
43710;SDS011;29309;42.682;23.372;2023-04-25T14:49:57;2.17;;;1.27;;